Time;durP1;ratioP1;P1;durP2;ratioP2;P2;SDS_P1;SDS_P2;PMS_P1;PMS_P2;Temp;Humidity;BMP_temperature;BMP_pressure;BME280_temperature;BME280_humidity;BME280_pressure;Samples;Min_cycle;Max_cycle;Signal;HPM_P1;HPM_P2
2022/09/06 00:02:18;;;;;;;8.17;4.43;;;;;;;14.96;65.26;100997.95;1551552;83;21342;-78
2022/09/06 00:04:44;;;;;;;5.57;4.23;;;;;;;14.99;64.90;101002.95;1556556;83;22391;-77
2022/09/06 00:07:10;;;;;;;6.53;4.77;;;;;;;15.00;64.65;101005.95;1550533;83;21453;-78
2022/09/06 00:09:36;;;;;;;9.23;4.27;;;;;;;15.00;64.55;101000.61;1544379;82;21446;-77
2022/09/06 00:12:03;;;;;;;6.87;4.00;;;;;;;15.00;63.89;100997.95;1534145;83;21402;-77
2022/09/06 00:14:29;;;;;;;9.00;4.10;;;;;;;14.98;63.61;101003.93;1533470;83;21586;-79
2022/09/06 00:16:55;;;;;;;11.07;5.03;;;;;;;14.97;63.71;100988.94;1539826;83;22326;-79
2022/09/06 00:19:21;;;;;;;5.67;4.13;;;;;;;14.97;63.81;100990.28;1550563;83;21350;-78
2022/09/06 00:21:47;;;;;;;9.37;5.30;;;;;;;14.96;64.06;100991.76;1539206;83;21425;-79
2022/09/06 00:24:13;;;;;;;6.37;3.60;;;;;;;14.93;64.18;100985.42;1538556;83;21505;-78
2022/09/06 00:26:39;;;;;;;5.90;4.40;;;;;;;14.87;64.58;100989.09;1550782;82;21382;-78
2022/09/06 00:29:05;;;;;;;8.83;4.33;;;;;;;14.85;64.96;100992.91;1528815;84;22395;-78
2022/09/06 00:31:31;;;;;;;6.50;3.60;;;;;;;14.80;64.73;100988.05;1529574;83;21410;-78
2022/09/06 00:33:57;;;;;;;7.63;4.20;;;;;;;14.82;64.36;100994.06;1530463;83;21401;-78
2022/09/06 00:36:23;;;;;;;9.23;4.30;;;;;;;14.82;64.02;100995.91;1534335;84;22320;-78
2022/09/06 00:38:49;;;;;;;9.40;4.70;;;;;;;14.81;63.99;100989.72;1533344;84;21447;-79
2022/09/06 00:41:16;;;;;;;4.50;3.80;;;;;;;14.75;64.42;100990.36;1542249;83;21409;-77
2022/09/06 00:43:42;;;;;;;8.70;3.93;;;;;;;14.73;64.55;100991.52;1531660;83;22407;-78
2022/09/06 00:46:14;;;;;;;6.63;4.37;;;;;;;14.71;64.80;100990.36;1535951;83;21402;-78
2022/09/06 00:48:42;;;;;;;8.63;4.50;;;;;;;14.70;64.60;100992.67;1554901;83;21365;-78
2022/09/06 00:51:12;;;;;;;10.03;5.03;;;;;;;14.74;64.53;100995.37;1532374;82;21379;-77
2022/09/06 00:53:38;;;;;;;6.78;4.45;;;;;;;14.76;64.31;100989.39;1545182;83;21387;-78
2022/09/06 00:56:05;;;;;;;5.40;3.63;;;;;;;14.80;64.12;100999.22;1554799;83;22326;-78
2022/09/06 00:58:31;;;;;;;9.30;4.87;;;;;;;14.79;63.99;101005.55;1553476;82;21490;-77
2022/09/06 01:00:57;;;;;;;9.70;4.87;;;;;;;14.81;63.91;101005.70;1552874;83;21446;-77
2022/09/06 01:03:25;;;;;;;6.57;4.33;;;;;;;14.82;63.67;100996.73;1549276;83;22189;-77
2022/09/06 01:06:19;;;;;;;9.07;4.73;;;;;;;14.79;62.99;101002.39;1556461;83;21534;-77
2022/09/06 01:09:24;;;;;;;8.73;4.47;;;;;;;14.77;63.33;101003.55;1552656;82;22491;-78
2022/09/06 01:12:22;;;;;;;9.87;4.93;;;;;;;14.72;63.24;100999.19;1558607;83;21365;-78
2022/09/06 01:15:05;;;;;;;9.07;4.73;;;;;;;14.70;63.85;100997.17;1564259;82;22461;-77
2022/09/06 01:17:59;;;;;;;7.13;4.30;;;;;;;14.66;63.42;101004.66;1554478;82;22407;-77
2022/09/06 01:20:34;;;;;;;5.63;3.87;;;;;;;14.64;63.49;101007.50;1553012;83;21439;-77
2022/09/06 01:23:27;;;;;;;8.23;4.10;;;;;;;14.62;63.31;101005.98;1562039;83;21410;-77
2022/09/06 01:26:28;;;;;;;6.67;5.13;;;;;;;14.57;63.21;101005.12;1563381;82;21402;-77
2022/09/06 01:28:55;;;;;;;7.12;4.92;;;;;;;14.52;63.45;101013.25;1551120;83;21520;-76
2022/09/06 01:31:48;;;;;;;8.10;5.57;;;;;;;14.46;63.46;101008.02;1566682;82;21431;-77
2022/09/06 01:34:22;;;;;;;7.97;4.37;;;;;;;14.42;63.13;101012.84;1546491;83;21394;-76
2022/09/06 01:36:59;;;;;;;9.10;4.97;;;;;;;14.35;63.16;101005.12;1559729;83;21586;-77
2022/09/06 01:39:36;;;;;;;9.50;5.23;;;;;;;14.31;63.07;101007.78;1543504;83;21681;-77
2022/09/06 01:42:16;;;;;;;11.60;4.60;;;;;;;14.25;63.27;100999.59;1556758;83;21424;-77
2022/09/06 01:44:51;;;;;;;7.10;4.53;;;;;;;14.20;63.39;101002.72;1555196;82;21468;-76
2022/09/06 01:47:40;;;;;;;8.27;4.70;;;;;;;14.16;64.14;100997.39;1569511;83;21631;-77
2022/09/06 01:50:39;;;;;;;7.40;4.23;;;;;;;14.13;64.16;101000.36;1549941;83;21682;-77
2022/09/06 01:53:34;;;;;;;4.63;3.90;;;;;;;14.11;64.38;101003.67;1555487;83;22539;-77
2022/09/06 01:56:22;;;;;;;8.43;4.80;;;;;;;14.07;64.71;101011.61;1557742;83;21439;-77
2022/09/06 01:59:09;;;;;;;10.53;5.10;;;;;;;14.05;65.08;101005.12;1555331;82;21416;-77
2022/09/06 02:02:14;;;;;;;6.73;4.43;;;;;;;14.04;65.04;101002.61;1541263;83;21534;-75
2022/09/06 02:04:48;;;;;;;5.83;3.97;;;;;;;14.02;65.12;101005.44;1487584;83;21491;-77
2022/09/06 02:07:20;;;;;;;9.77;5.10;;;;;;;14.00;65.27;101003.42;1530900;84;21461;-77
2022/09/06 02:10:04;;;;;;;8.87;4.77;;;;;;;13.98;65.08;101003.59;1525308;84;21639;-77
2022/09/06 02:12:33;;;;;;;6.97;4.90;;;;;;;13.94;65.77;101001.39;1527479;83;21649;-77
2022/09/06 02:15:12;;;;;;;7.53;5.30;;;;;;;13.88;66.30;101000.19;1522048;84;21520;-77
2022/09/06 02:17:44;;;;;;;9.60;4.93;;;;;;;13.82;65.87;101002.13;1528083;82;22503;-78
2022/09/06 02:20:22;;;;;;;7.10;4.47;;;;;;;13.75;66.20;101004.59;1532343;84;22437;-77
2022/09/06 02:22:49;;;;;;;10.43;4.90;;;;;;;13.72;66.88;101002.70;1533728;84;21445;-77
2022/09/06 02:25:28;;;;;;;7.57;4.63;;;;;;;13.70;67.33;101008.20;1524075;83;21535;-77
2022/09/06 02:27:55;;;;;;;7.77;4.57;;;;;;;13.73;67.54;101013.70;1558374;82;22378;-77
2022/09/06 02:30:21;;;;;;;8.50;4.47;;;;;;;13.76;67.07;101004.09;1532503;82;21484;-77
2022/09/06 02:32:58;;;;;;;7.13;4.80;;;;;;;13.79;66.83;101008.27;1554529;83;21505;-77
2022/09/06 02:35:25;;;;;;;10.97;4.73;;;;;;;13.80;66.67;101004.11;1548205;83;21498;-76
2022/09/06 02:37:51;;;;;;;8.37;4.20;;;;;;;13.80;66.95;101000.61;1549046;83;21587;-77
2022/09/06 02:40:18;;;;;;;6.90;4.63;;;;;;;13.76;67.76;101006.25;1545610;82;21489;-77
2022/09/06 02:42:44;;;;;;;14.53;6.43;;;;;;;13.66;67.95;101002.00;1568973;83;21526;-76
2022/09/06 02:45:10;;;;;;;10.73;4.57;;;;;;;13.58;68.26;101002.78;1547990;82;21815;-78
2022/09/06 02:47:36;;;;;;;11.07;5.03;;;;;;;13.50;69.10;101002.70;1525788;84;21336;-78
2022/09/06 02:50:03;;;;;;;6.70;4.47;;;;;;;13.45;69.06;101000.98;1521248;84;21461;-76
2022/09/06 02:52:29;;;;;;;5.70;3.73;;;;;;;13.40;69.89;101001.94;1527900;83;22524;-77
2022/09/06 02:54:55;;;;;;;5.70;4.00;;;;;;;13.37;70.58;101000.41;1553522;83;21521;-76
2022/09/06 02:57:22;;;;;;;8.57;5.17;;;;;;;13.31;70.92;101003.18;1539122;83;21439;-77
2022/09/06 02:59:48;;;;;;;8.30;4.87;;;;;;;13.29;70.67;101004.31;1546876;83;21395;-77
2022/09/06 03:02:15;;;;;;;6.43;4.33;;;;;;;13.26;70.36;100999.30;1553667;83;22392;-76
2022/09/06 03:04:41;;;;;;;12.63;4.80;;;;;;;13.27;70.13;100994.34;1539502;83;21416;-76
2022/09/06 03:07:07;;;;;;;6.83;5.37;;;;;;;13.28;69.63;100992.02;1546223;82;22674;-78
2022/09/06 03:09:33;;;;;;;12.23;5.40;;;;;;;13.24;70.65;100999.44;1533448;83;22693;-78
2022/09/06 03:12:00;;;;;;;7.90;4.10;;;;;;;13.17;71.08;100994.37;1549408;83;21453;-78
2022/09/06 03:14:26;;;;;;;12.07;5.87;;;;;;;13.13;71.45;100998.83;1548441;82;21447;-78
2022/09/06 03:16:52;;;;;;;8.77;4.33;;;;;;;13.12;71.07;100999.79;1538568;83;21440;-77
2022/09/06 03:19:18;;;;;;;10.67;5.20;;;;;;;13.11;71.34;100998.95;1556680;83;21535;-77
2022/09/06 03:21:45;;;;;;;5.90;4.43;;;;;;;13.10;70.91;100999.45;1545364;82;22437;-77
2022/09/06 03:24:11;;;;;;;6.87;4.77;;;;;;;13.13;70.60;101004.14;1560976;82;21483;-77
2022/09/06 03:26:36;;;;;;;10.37;5.30;;;;;;;13.11;70.88;101000.29;1561584;83;22384;-77
2022/09/06 03:29:02;;;;;;;10.13;5.60;;;;;;;13.07;70.70;100993.62;1550025;83;21439;-77
2022/09/06 03:31:28;;;;;;;6.37;4.43;;;;;;;13.05;70.92;100995.08;1534344;82;21484;-77
2022/09/06 03:33:54;;;;;;;17.37;5.70;;;;;;;13.01;71.20;100993.72;1531456;83;21490;-77
2022/09/06 03:36:21;;;;;;;10.17;5.47;;;;;;;13.01;71.70;101003.02;1527441;83;21343;-77
2022/09/06 03:38:47;;;;;;;9.40;4.50;;;;;;;13.02;72.35;101004.68;1549504;83;21461;-77
2022/09/06 03:41:13;;;;;;;10.03;4.67;;;;;;;13.08;71.62;101009.89;1541834;83;21380;-77
2022/09/06 03:43:39;;;;;;;9.40;5.43;;;;;;;13.16;71.74;101005.17;1557004;82;22020;-76
2022/09/06 03:46:05;;;;;;;9.83;4.83;;;;;;;13.23;71.06;101008.38;1554464;83;21409;-78
2022/09/06 03:48:31;;;;;;;7.10;5.20;;;;;;;13.33;70.67;101011.02;1538765;82;21366;-77
2022/09/06 03:50:58;;;;;;;9.80;5.40;;;;;;;13.41;70.46;101007.11;1546038;83;21470;-77
2022/09/06 03:53:26;;;;;;;7.17;5.33;;;;;;;13.47;70.62;101010.49;1560558;83;22426;-77
2022/09/06 03:55:56;;;;;;;10.20;6.13;;;;;;;13.52;70.29;101001.57;1557616;82;22871;-77
2022/09/06 03:58:26;;;;;;;8.63;4.75;;;;;;;13.59;69.94;101008.93;1557713;82;21475;-79
2022/09/06 04:01:06;;;;;;;6.95;4.72;;;;;;;13.62;69.79;101012.61;1559707;83;21539;-79
2022/09/06 04:03:33;;;;;;;10.05;5.22;;;;;;;13.64;69.75;101022.61;1547787;82;22317;-78
2022/09/06 04:06:00;;;;;;;8.40;5.47;;;;;;;13.63;69.59;101024.91;1541777;84;21645;-78
2022/09/06 04:08:26;;;;;;;6.40;4.97;;;;;;;13.67;70.08;101028.95;1540487;83;21403;-79
2022/09/06 04:10:54;;;;;;;7.80;5.03;;;;;;;13.68;70.23;101030.62;1538754;83;21403;-79
2022/09/06 04:13:22;;;;;;;9.30;4.70;;;;;;;13.71;69.92;101028.48;1546336;83;21447;-78
2022/09/06 04:15:49;;;;;;;7.07;4.23;;;;;;;13.76;69.84;101021.38;1539670;83;21411;-77
2022/09/06 04:18:16;;;;;;;6.30;4.63;;;;;;;13.80;70.23;101021.40;1539624;84;21402;-78
2022/09/06 04:20:44;;;;;;;21.00;6.77;;;;;;;13.77;69.51;101017.72;1552738;83;21387;-78
2022/09/06 04:23:10;;;;;;;10.17;5.87;;;;;;;13.75;69.27;101015.23;1532238;84;21373;-78
2022/09/06 04:25:36;;;;;;;9.53;4.70;;;;;;;13.73;69.22;101011.05;1542056;83;21403;-79
2022/09/06 04:28:02;;;;;;;8.80;4.97;;;;;;;13.65;69.44;101017.13;1524839;84;21476;-77
2022/09/06 04:30:28;;;;;;;7.30;4.60;;;;;;;13.59;69.31;101019.07;1533417;84;21498;-78
2022/09/06 04:32:54;;;;;;;8.27;4.87;;;;;;;13.56;69.25;101007.41;1533987;84;21315;-77
2022/09/06 04:35:20;;;;;;;6.13;4.40;;;;;;;13.58;69.80;101011.23;1525058;84;21462;-77
2022/09/06 04:37:46;;;;;;;6.00;4.20;;;;;;;13.59;70.15;101008.93;1537793;83;21978;-76
2022/09/06 04:40:12;;;;;;;12.23;5.17;;;;;;;13.64;70.56;101010.64;1522219;84;21417;-76
2022/09/06 04:42:38;;;;;;;9.47;5.20;;;;;;;13.70;70.98;101003.37;1523537;84;21526;-77
2022/09/06 04:45:06;;;;;;;16.77;5.10;;;;;;;13.76;71.07;101004.09;1519331;84;21462;-76
2022/09/06 04:47:32;;;;;;;14.47;6.30;;;;;;;13.79;70.20;100998.45;1523865;85;21388;-76
2022/09/06 04:49:58;;;;;;;17.93;5.93;;;;;;;13.83;69.90;101001.13;1512801;85;21425;-75
2022/09/06 04:52:24;;;;;;;14.93;5.70;;;;;;;13.85;69.61;101003.16;1544140;84;21454;-77
2022/09/06 04:54:50;;;;;;;11.47;5.67;;;;;;;13.86;69.47;101004.81;1544887;83;22379;-78
2022/09/06 04:57:16;;;;;;;8.90;5.70;;;;;;;13.92;69.37;101002.86;1531514;84;21410;-78
2022/09/06 04:59:42;;;;;;;13.10;5.53;;;;;;;14.00;69.49;101004.25;1551079;84;21447;-78
2022/09/06 05:02:08;;;;;;;7.87;5.03;;;;;;;14.05;69.10;101008.29;1546858;83;21475;-78
2022/09/06 05:04:34;;;;;;;13.70;4.63;;;;;;;14.11;68.58;101008.99;1552874;83;21417;-77
2022/09/06 05:07:04;;;;;;;11.80;5.20;;;;;;;14.15;68.24;101007.67;1553483;83;21572;-78
2022/09/06 05:09:32;;;;;;;11.83;5.57;;;;;;;14.17;67.99;101007.03;1559808;83;21431;-78
2022/09/06 05:11:58;;;;;;;16.77;5.10;;;;;;;14.22;68.14;101007.41;1562809;82;21482;-79
2022/09/06 05:14:26;;;;;;;10.57;5.23;;;;;;;14.27;68.04;101010.44;1556105;82;21468;-77
2022/09/06 05:16:53;;;;;;;8.17;4.77;;;;;;;14.31;67.88;101011.78;1549831;83;23466;-79
2022/09/06 05:19:20;;;;;;;7.77;4.83;;;;;;;14.32;67.43;101002.78;1558374;82;21475;-78
2022/09/06 05:21:46;;;;;;;9.53;5.60;;;;;;;14.32;67.17;101008.11;1564887;83;22363;-79
2022/09/06 05:24:12;;;;;;;9.83;4.70;;;;;;;14.33;67.49;100998.32;1553095;82;21548;-79
2022/09/06 05:26:38;;;;;;;8.40;4.80;;;;;;;14.33;67.28;101012.47;1533095;82;21397;-77
2022/09/06 05:29:05;;;;;;;7.77;4.87;;;;;;;14.34;67.40;101008.80;1541264;84;21426;-78
2022/09/06 05:31:33;;;;;;;10.17;5.13;;;;;;;14.41;67.64;101015.17;1532677;84;21382;-77
2022/09/06 05:34:00;;;;;;;7.43;4.73;;;;;;;14.41;67.00;101020.97;1542711;83;21396;-78
2022/09/06 05:36:28;;;;;;;7.53;4.93;;;;;;;14.39;68.04;101026.98;1532858;84;21411;-78
2022/09/06 05:38:56;;;;;;;6.70;4.83;;;;;;;14.44;67.86;101021.52;1538231;84;21478;-78
2022/09/06 05:41:23;;;;;;;9.50;5.83;;;;;;;14.53;67.86;101015.77;1533287;84;21465;-77
2022/09/06 05:43:49;;;;;;;9.17;4.90;;;;;;;14.59;67.76;101007.13;1531334;84;21521;-77
2022/09/06 05:46:16;;;;;;;11.10;5.20;;;;;;;14.68;67.56;101014.66;1535520;84;21367;-77
2022/09/06 05:48:43;;;;;;;7.30;5.03;;;;;;;14.75;67.50;101013.02;1533763;83;21485;-77
2022/09/06 05:51:12;;;;;;;9.83;5.13;;;;;;;14.79;67.18;101011.72;1530611;84;21412;-76
2022/09/06 05:53:44;;;;;;;8.97;4.87;;;;;;;14.85;67.02;101011.56;1533112;83;21463;-77
2022/09/06 05:56:12;;;;;;;10.47;5.20;;;;;;;14.92;67.03;101013.08;1544268;84;21426;-77
2022/09/06 05:58:39;;;;;;;5.97;4.67;;;;;;;15.02;66.91;101007.13;1528654;84;21572;-77
2022/09/06 06:01:22;;;;;;;13.13;5.27;;;;;;;15.17;66.84;101000.16;1531154;83;21411;-78
2022/09/06 06:03:55;;;;;;;7.20;5.60;;;;;;;15.37;66.55;101000.69;1540536;84;21551;-84
2022/09/06 06:06:23;;;;;;;11.37;5.20;;;;;;;15.63;66.28;101005.88;1528027;82;21388;-84
2022/09/06 06:08:50;;;;;;;10.20;5.27;;;;;;;15.86;65.47;100992.73;1459928;85;22353;-82
2022/09/06 06:11:16;;;;;;;7.97;5.57;;;;;;;16.12;65.40;100994.36;1627570;83;21389;-83
2022/09/06 06:13:43;;;;;;;7.30;4.87;;;;;;;16.27;64.06;100997.16;1460939;83;21454;-83
2022/09/06 06:16:12;;;;;;;7.93;4.97;;;;;;;16.36;63.35;101004.97;1459801;83;22447;-83
2022/09/06 06:18:39;;;;;;;11.10;5.53;;;;;;;16.42;62.75;101001.61;1447926;85;22211;-83
2022/09/06 06:21:13;;;;;;;7.83;5.07;;;;;;;16.50;62.94;100994.08;1459941;83;21470;-83
2022/09/06 06:23:41;;;;;;;13.27;5.57;;;;;;;16.59;63.03;100989.02;1615691;83;21516;-84
2022/09/06 06:26:09;;;;;;;8.43;5.27;;;;;;;16.70;62.73;100988.64;1457449;82;21564;-84
2022/09/06 06:28:36;;;;;;;7.57;4.70;;;;;;;16.77;61.80;100989.31;1522446;83;21555;-82
2022/09/06 06:31:04;;;;;;;7.57;4.77;;;;;;;16.80;61.25;100994.31;1456380;85;21543;-81
2022/09/06 06:33:31;;;;;;;9.27;4.70;;;;;;;16.93;61.03;101000.45;1452947;84;21477;-81
2022/09/06 06:36:01;;;;;;;7.47;4.97;;;;;;;17.05;59.15;101003.87;1456827;82;21526;-81
2022/09/06 06:38:34;;;;;;;16.32;6.08;;;;;;;17.14;59.77;101000.13;1451870;85;22300;-81
2022/09/06 06:41:00;;;;;;;10.13;5.23;;;;;;;17.16;59.28;100999.14;1603943;83;21380;-80
2022/09/06 06:43:27;;;;;;;11.17;5.60;;;;;;;17.09;59.03;101003.00;1452354;84;21314;-82
2022/09/06 06:45:53;;;;;;;9.60;5.67;;;;;;;17.05;59.42;101010.55;1458029;82;21300;-81
2022/09/06 06:48:20;;;;;;;7.57;4.80;;;;;;;17.03;59.61;101007.25;1463511;83;21276;-81
2022/09/06 06:50:46;;;;;;;13.50;5.80;;;;;;;17.02;60.10;101007.41;1473177;83;21350;-82
2022/09/06 06:53:12;;;;;;;5.77;4.20;;;;;;;17.01;60.04;101017.28;1466804;83;21417;-82
2022/09/06 06:55:38;;;;;;;8.37;5.20;;;;;;;16.98;60.27;101012.28;1467554;82;21402;-82
2022/09/06 06:58:04;;;;;;;10.03;4.83;;;;;;;16.96;59.99;101014.80;1523525;82;21330;-83
2022/09/06 07:00:30;;;;;;;8.83;5.07;;;;;;;16.93;61.04;101011.97;1555715;82;21372;-81
2022/09/06 07:02:58;;;;;;;14.70;5.37;;;;;;;16.93;61.04;101011.97;1545006;83;21365;-82
2022/09/06 07:05:25;;;;;;;8.07;5.20;;;;;;;16.91;60.56;101020.66;1560106;82;21557;-82
2022/09/06 07:07:51;;;;;;;10.97;5.47;;;;;;;16.92;60.90;101023.68;1556640;82;21447;-81
2022/09/06 07:10:17;;;;;;;14.67;6.20;;;;;;;16.95;61.55;101028.67;1560188;82;21498;-81
2022/09/06 07:12:43;;;;;;;10.63;5.33;;;;;;;17.01;61.73;101025.30;1565180;82;22317;-81
2022/09/06 07:15:09;;;;;;;6.17;4.83;;;;;;;17.06;62.05;101022.08;1552457;83;21410;-82
2022/09/06 07:17:36;;;;;;;10.17;5.30;;;;;;;17.13;61.81;101017.70;1559926;82;21445;-82
2022/09/06 07:20:02;;;;;;;11.90;5.67;;;;;;;17.20;61.93;101019.16;1554112;83;21490;-82
2022/09/06 07:22:29;;;;;;;19.07;6.67;;;;;;;17.24;61.52;101017.82;1559614;83;21387;-83
2022/09/06 07:24:55;;;;;;;8.97;4.73;;;;;;;17.29;61.14;101022.11;1563843;83;21432;-83
2022/09/06 07:27:21;;;;;;;9.93;5.07;;;;;;;17.37;61.35;101024.73;1550886;83;21445;-83
2022/09/06 07:29:47;;;;;;;9.27;6.10;;;;;;;17.44;61.42;101020.36;1559084;82;21482;-83
2022/09/06 07:32:13;;;;;;;11.77;5.10;;;;;;;17.43;59.81;101028.03;1558132;83;22363;-83
2022/09/06 07:34:39;;;;;;;12.17;5.63;;;;;;;17.46;60.03;101030.36;1555588;83;21475;-82
2022/09/06 07:37:05;;;;;;;5.73;4.93;;;;;;;17.49;60.31;101027.35;1554358;83;21453;-83
2022/09/06 07:39:35;;;;;;;8.10;5.20;;;;;;;17.56;60.83;101029.63;1553410;83;22480;-82
2022/09/06 07:42:02;;;;;;;7.17;5.83;;;;;;;17.65;60.56;101022.36;1554824;82;22600;-82
2022/09/06 07:44:29;;;;;;;9.80;5.20;;;;;;;17.72;60.57;101019.80;1558364;83;21453;-82
2022/09/06 07:46:55;;;;;;;40.87;9.43;;;;;;;17.79;60.85;101013.58;1555493;83;21439;-81
2022/09/06 07:49:21;;;;;;;47.40;8.73;;;;;;;17.89;60.41;101020.02;1556073;83;21431;-81
2022/09/06 07:51:48;;;;;;;10.03;4.87;;;;;;;18.08;60.19;101018.67;1558090;83;21512;-81
2022/09/06 07:54:14;;;;;;;7.43;4.53;;;;;;;18.35;60.04;101025.25;1556414;82;21461;-82
2022/09/06 07:56:40;;;;;;;29.57;6.47;;;;;;;18.52;58.13;101013.84;1559576;83;21972;-82
2022/09/06 07:59:06;;;;;;;8.27;5.50;;;;;;;18.50;58.06;101013.22;1567328;83;21417;-83
2022/09/06 08:01:38;;;;;;;8.80;5.30;;;;;;;18.71;57.56;101004.41;1558408;83;21498;-83
2022/09/06 08:04:09;;;;;;;7.87;5.33;;;;;;;18.82;56.90;101006.65;1554931;83;21380;-82
2022/09/06 08:06:39;;;;;;;9.97;5.33;;;;;;;18.81;56.73;101003.63;1559187;83;21631;-83
2022/09/06 08:09:07;;;;;;;17.92;6.37;;;;;;;18.93;57.18;101008.85;1559862;83;21438;-82
2022/09/06 08:11:35;;;;;;;6.47;4.60;;;;;;;19.13;57.16;101009.56;1557209;82;21720;-82
2022/09/06 08:14:05;;;;;;;7.50;5.22;;;;;;;19.22;57.20;101008.94;1550503;83;21372;-82
2022/09/06 08:16:33;;;;;;;14.73;5.53;;;;;;;19.26;56.73;101013.75;1560599;83;21379;-81
2022/09/06 08:19:03;;;;;;;9.98;5.00;;;;;;;19.33;56.21;101009.30;1556591;83;21505;-83
2022/09/06 08:21:31;;;;;;;8.68;5.37;;;;;;;19.41;55.40;101007.49;1554708;82;21402;-83
2022/09/06 08:24:01;;;;;;;9.40;5.22;;;;;;;19.57;56.10;101011.27;1560693;82;21439;-82
2022/09/06 08:26:29;;;;;;;7.65;5.05;;;;;;;19.67;55.90;101006.42;1548589;82;22305;-82
2022/09/06 08:28:59;;;;;;;16.37;6.67;;;;;;;19.84;56.30;101001.61;1552088;82;21404;-81
2022/09/06 08:31:26;;;;;;;6.90;4.47;;;;;;;20.05;55.95;101010.13;1454517;82;21402;-83
2022/09/06 08:33:53;;;;;;;6.55;4.85;;;;;;;20.26;55.16;100997.16;1448266;83;21426;-82
2022/09/06 08:36:20;;;;;;;6.78;4.78;;;;;;;20.39;54.99;100999.08;1470853;84;21448;-82
2022/09/06 08:38:47;;;;;;;7.90;4.35;;;;;;;20.44;54.08;100994.77;1545497;83;21462;-82
2022/09/06 08:41:43;;;;;;;9.93;4.47;;;;;;;20.41;54.26;100995.17;1532355;83;21389;-81
2022/09/06 08:44:35;;;;;;;8.98;4.85;;;;;;;20.41;54.49;101004.58;1530164;84;21440;-82
2022/09/06 08:47:11;;;;;;;9.00;5.25;;;;;;;20.57;54.42;101000.78;1538123;83;22446;-81
2022/09/06 08:49:51;;;;;;;8.60;4.70;;;;;;;21.00;54.23;100992.96;1535819;84;22307;-82
2022/09/06 08:52:31;;;;;;;6.78;4.53;;;;;;;21.08;51.92;100982.84;1541289;83;21433;-82
2022/09/06 08:55:04;;;;;;;;;;;;;;;21.05;52.22;100989.98;1511267;84;21469;-81
2022/09/06 08:58:04;;;;;;;7.15;3.77;;;;;;;21.12;52.96;100981.94;1535795;83;20907;-82
2022/09/06 09:00:34;;;;;;;8.68;4.83;;;;;;;21.20;52.66;100979.03;1519921;84;21425;-81
2022/09/06 09:03:11;;;;;;;6.40;4.58;;;;;;;21.42;52.04;100977.04;1538625;84;21507;-80
2022/09/06 09:05:40;;;;;;;7.67;4.65;;;;;;;21.69;52.02;100982.43;1533538;84;21449;-82
2022/09/06 09:08:23;;;;;;;7.92;5.03;;;;;;;21.94;51.51;100975.38;1535629;85;21502;-82
2022/09/06 09:10:55;;;;;;;7.70;4.25;;;;;;;22.19;51.01;100968.02;1522651;85;21575;-83
2022/09/06 09:13:41;;;;;;;8.10;4.47;;;;;;;22.31;47.59;100967.66;1520651;85;21420;-83
2022/09/06 09:16:07;;;;;;;9.13;4.62;;;;;;;22.28;46.32;100970.78;1522922;85;21487;-83
2022/09/06 09:18:37;;;;;;;7.62;4.75;;;;;;;22.38;47.75;100957.93;1527780;85;22616;-82
2022/09/06 09:21:04;;;;;;;12.47;4.47;;;;;;;22.70;46.61;100955.05;1523040;85;21494;-82
2022/09/06 09:23:31;;;;;;;9.65;5.28;;;;;;;22.70;46.61;100955.05;1520624;85;21396;-82
2022/09/06 09:26:15;;;;;;;5.47;4.28;;;;;;;22.94;46.42;100965.11;1521025;85;22424;-82
2022/09/06 09:29:20;;;;;;;5.58;3.62;;;;;;;23.10;45.67;100960.27;1509195;85;21582;-82
2022/09/06 09:31:50;;;;;;;80.60;12.78;;;;;;;23.27;44.98;100961.40;1530673;85;22704;-82
2022/09/06 09:34:38;;;;;;;7.10;4.85;;;;;;;23.30;45.28;100956.09;1518401;85;21500;-83
2022/09/06 09:37:24;;;;;;;7.65;4.08;;;;;;;23.50;45.79;100961.34;1526027;85;21427;-82
2022/09/06 09:39:54;;;;;;;6.90;4.25;;;;;;;23.58;44.51;100951.09;1525311;85;22425;-83
2022/09/06 09:42:32;;;;;;;;;;;;;;;23.76;43.52;100948.16;1440835;85;21479;-82
2022/09/06 09:45:00;;;;;;;8.23;3.95;;;;;;;23.80;42.88;100954.80;1533252;85;20411;-82
2022/09/06 09:47:29;;;;;;;36.63;6.83;;;;;;;23.97;43.99;100953.70;1522793;85;21397;-83
2022/09/06 09:49:57;;;;;;;6.42;3.77;;;;;;;24.13;43.82;100946.86;1530122;85;21413;-83
2022/09/06 09:52:30;;;;;;;38.08;7.03;;;;;;;24.06;40.75;100940.19;1524559;85;21450;-82
2022/09/06 09:55:04;;;;;;;6.95;4.37;;;;;;;24.10;40.92;100939.48;1519983;85;21479;-82
2022/09/06 09:57:35;;;;;;;11.12;4.78;;;;;;;24.35;42.81;100941.84;1521430;85;21457;-83
2022/09/06 10:00:05;;;;;;;8.78;4.85;;;;;;;24.54;42.77;100940.78;1522468;85;22447;-82
2022/09/06 10:02:40;;;;;;;6.37;3.62;;;;;;;24.74;42.87;100936.46;1612959;85;21471;-82
2022/09/06 10:05:16;;;;;;;6.85;3.98;;;;;;;24.85;40.60;100932.98;1526104;85;21603;-82
2022/09/06 10:07:53;;;;;;;8.03;3.98;;;;;;;24.92;41.00;100932.91;1521332;84;22487;-83
2022/09/06 10:10:29;;;;;;;5.67;4.25;;;;;;;24.83;37.76;100928.84;1525570;85;21457;-83
2022/09/06 10:13:15;;;;;;;5.00;3.52;;;;;;;24.98;39.25;100925.21;1613750;85;21295;-83
2022/09/06 10:15:42;;;;;;;4.30;3.85;;;;;;;25.01;38.65;100927.45;1537980;85;21604;-82
2022/09/06 10:18:42;;;;;;;7.25;3.87;;;;;;;25.11;39.41;100922.81;1518570;85;21419;-82
2022/09/06 10:21:21;;;;;;;;;;;;;;;25.23;39.63;100925.58;1528973;85;21427;-82
2022/09/06 10:24:04;;;;;;;6.05;3.05;;;;;;;25.40;38.07;100919.78;1527114;85;20271;-83
2022/09/06 10:26:56;;;;;;;10.10;3.50;;;;;;;25.58;38.50;100923.76;1520601;85;22388;-80
2022/09/06 10:29:46;;;;;;;9.58;4.35;;;;;;;25.69;37.72;100921.27;1524475;85;21531;-82
2022/09/06 10:32:18;;;;;;;5.60;3.30;;;;;;;25.76;38.10;100920.64;1520908;85;21530;-83
